Peter Murray

Chief Scout - Norwich City
20 Feb 2028
Sunday
Process

Personality

Adaptability (7) Ambition (3) Controversy (1) Loyalty (2) Pressure (14) Professionalism (11) Sportsmanship (15) Temperament (19)

Profile

Coaching Style Democratic
License Continental B
Determination 11
Man Management 7
Motivating 12
Discipline 9
Job Satisfaction
86%
Fatigue
0%
Role Chief Scout
Wage 14.3K p/w
Contract 14.03.2030

Performance

Behaviour Good
Training Effectiveness
30%
Player Development
45%
Injury Prevention
50%
Tactical Implementation
55%

Recent Events

Attended a recruitment meeting now
Attended a recruitment meeting now
Attended a recruitment meeting now
Recommended a transfer target now
Recommended a transfer target now
Recommended a transfer target 7d ago
Recommended a transfer target 7d ago
Recommended a transfer target 7d ago

Currently Monitoring

232
Player Club Status Ability Confidence Watched Last Observed Latest Vote
Marcel Ruiz PSV Active 140 / 141 66% 1 17.01.2028 Approve
Ollie O'Neill Leyton Orient Active 118 / 110 69% 1 17.01.2028 Approve
Federico Pereira Nacional Negotiating 135 / 135 68% 1 01.01.2028 Approve
Antony Alonso Deportivo Riestra Active 116 / 126 40% 1 31.12.2027 -
Caleb Yirenkyi Coventry City Active 140 / 146 40% 3 12.12.2027 -
Joel Ezra Enyimba Active 83 / 98 40% 5 12.12.2027 -
Ronan Kpakio Cardiff City Active 116 / 123 40% 1 12.12.2027 -
Dominik Chong Qui Atlanta United FC Active 93 / 90 40% 4 10.12.2027 -
Bahia Criciuma Active 121 / 119 40% 4 10.12.2027 -
Rivaldo Grobler Free State Stars Active 96 / 102 40% 1 10.12.2027 -
Ayden Heaven Luton Town Active 153 / 145 40% 6 03.12.2027 -
Jofre Torrents Ajax Active 124 / 141 40% 2 03.12.2027 -
Colin Guske Orlando City Active 105 / 101 40% 1 03.12.2027 -
Tiago Parente Benfica Active 104 / 117 40% 4 02.12.2027 -
Olivier Mambwa Young Boys Active 111 / 123 40% 1 02.12.2027 -
Noahkai Banks Hamburger SV Active 138 / 135 40% 1 02.12.2027 -
Fillip Jenssen Riise Stabaek Active 95 / 116 40% 4 30.11.2027 -
Jonny Shore New York City Active 109 / 100 40% 1 30.11.2027 -
Christos Mouzakitis Hull City Active 140 / 136 40% 3 29.11.2027 -
Jorrel Hato Chelsea Active 150 / 159 40% 2 29.11.2027 -
Esquerdinha Shrewsbury Town Active 123 / 124 40% 2 29.11.2027 -
Gift Udoh Ikorodu City Active 95 / 89 40% 4 25.11.2027 -
Hosea Michael Remo Stars Active 96 / 92 40% 3 25.11.2027 -
Somtochuwku Ezenabo Kwara United Active 89 / 87 40% 2 23.11.2027 -
Mauro Carrizo Atlético Tucumán Active 108 / 112 40% 2 23.11.2027 -
Jovan Milosavljević Kalmar FF Active 107 / 116 40% 2 22.11.2027 -
Juan Morán Godoy Cruz Active 108 / 108 40% 2 21.11.2027 -
Celías Ingenthron Vélez Active 108 / 125 40% 2 21.11.2027 -
Josh Nichols Tranmere Rovers Active 127 / 129 40% 2 20.11.2027 -
Alejandro Almaraz Nueva Chicago Active 108 / 118 40% 2 20.11.2027 -
Tyson Pearce St. Louis CITY SC Active 82 / 107 40% 4 18.11.2027 -
Aiden Hezarkhani Real Salt Lake Active 93 / 107 40% 7 16.11.2027 -
Frankie Westfield Philadelphia Union Active 107 / 105 40% 2 16.11.2027 -
Jan Bürger Gillingham Active 125 / 130 40% 1 16.11.2027 -
Josh King Chelsea Active 137 / 155 40% 2 15.11.2027 -
Hervin Goyes Deportivo Pasto Active 110 / 110 40% 4 15.11.2027 -
Dmitry Pestryakov Dinamo Moscow Active 105 / 118 40% 1 15.11.2027 -
Luka Vušković Manchester United Active 144 / 160 40% 2 13.11.2027 -
Olaniyi Saheed Kwara United Active 91 / 103 40% 4 12.11.2027 -
Julián Bazán Philadelphia Union Active 115 / 109 40% 2 07.11.2027 -
Ignacio Fernández Boston River Active 94 / 101 40% 4 06.11.2027 -
Nazareno Roselli Defensa y Justicia Active 115 / 116 40% 1 04.11.2027 -
Stanley Wilson AIK Active 105 / 108 40% 1 04.11.2027 -
José Correa Deportivo Tachira Active 100 / 97 40% 3 02.11.2027 -
Mikkel Hope Haugesund Active 110 / 113 40% 1 02.11.2027 -
Felipe Obradovich Ferro Carril Oeste Active 100 / 114 40% 2 27.10.2027 -
Agustín Obregón River Plate Active 109 / 114 40% 1 27.10.2027 -
Harbor Miller LA Galaxy Active 104 / 105 40% 1 27.10.2027 -
Tyler Hall Inter Miami CF Active 105 / 92 40% 1 25.10.2027 -
Archie Gray Derby County Active 144 / 152 40% 2 23.10.2027 -
Kaick Minnesota United FC Active 97 / 101 40% 1 23.10.2027 -
Matthew Litherland Rotherham United Active 120 / 119 40% 1 21.10.2027 -
Diego Vargas San Marcos de Arica Active 88 / 93 40% 2 19.10.2027 -
Drew Baiera New York City Active 103 / 103 40% 2 19.10.2027 -
Myles Lewis-Skelly Birmingham Active 148 / 165 40% 2 18.10.2027 -
Harrison Armstrong Everton Active 125 / 136 40% 1 07.10.2027 -
Gideon Manaseh Ikorodu City Active 103 / 99 40% 1 06.10.2027 -
Eliás Montiel Werder Bremen Active 133 / 133 40% 1 11.09.2027 -
Ricky Atletico Venezuela Active 96 / 107 40% 1 16.08.2027 -
Sascha Britschgi Padova Active 116 / 124 40% 1 16.08.2027 -
Freddy Murillo Valencia Active 108 / 128 40% 1 16.08.2027 -
Lewis Miley Chelsea Active 144 / 155 40% 1 09.08.2027 -
Gonçalo Oliveira Benfica Active 119 / 115 40% 1 09.08.2027 -
Zane Albarus Cambridge United Active 98 / 107 40% 1 13.07.2027 -
Darryl Bakola Padova Active 115 / 128 40% 1 13.07.2027 -
Adam Bakoune Ospitaletto Active 95 / 103 40% 1 05.07.2027 -
Kazunari Kita Real Sociedad Active 101 / 103 40% 1 05.07.2027 -
Liam Thompson Mansfield Town Active 123 / 125 69% 1 21.06.2027 Approve
Callum Doyle Wrexham Active 134 / 139 40% 1 30.05.2027 -
Jacob Greaves Ipswich Town Active 133 / 135 40% 1 30.05.2027 -
Tyrese Campbell Sheffield United Active 130 / 120 40% 10 28.05.2027 -
Elijah Adebayo Luton Town Active 126 / 128 40% 5 28.05.2027 -
Che Adams Torino Active 149 / 137 40% 4 27.05.2027 -
Tommy Conway Middlesbrough Active 121 / 135 40% 4 27.05.2027 -
Kwadwo Baah Watford Active 139 / 130 40% 3 26.05.2027 -
David Turnbull Cardiff City Active 122 / 113 40% 1 26.05.2027 -
Isaiah Jones Luton Town Active 124 / 116 40% 4 25.05.2027 -
Jack Rudoni Coventry City Active 132 / 140 40% 1 25.05.2027 -
Koki Saito Queens Park Rangers Active 125 / 131 40% 1 25.05.2027 -
Morgan Whittaker Middlesbrough Active 140 / 131 40% 6 24.05.2027 -
Sam Bell Bristol City Active 128 / 127 40% 2 24.05.2027 -
Giacomo Raspadori Atalanta Active 145 / 150 40% 13 22.05.2027 -
Ilyas Ansah Hull City Active 132 / 134 40% 3 22.05.2027 -
Welington Southampton Active 127 / 131 40% 4 22.05.2027 -
Finn Azaz Southampton Active 133 / 122 40% 2 22.05.2027 -
Aune Heggebø West Bromwich Albion Active 123 / 120 40% 7 19.05.2027 -
Malick Fofana Sunderland Active 140 / 142 40% 3 19.05.2027 -
Mikkel Damsgaard Brentford Active 141 / 139 40% 1 19.05.2027 -
Adam Wharton Crystal Palace Active 162 / 151 40% 3 16.05.2027 -
Jacques Ekomié Wrexham Active 128 / 125 40% 1 16.05.2027 -
Nathan Collins Brentford Active 157 / 142 40% 1 16.05.2027 -
Zeki Amdouni Burnley Active 137 / 131 40% 6 14.05.2027 -
Andrea Pinamonti Lazio Active 134 / 134 40% 5 13.05.2027 -
Georginio Rutter Brighton Active 146 / 155 40% 9 12.05.2027 -
Dango Ouattara Brentford Active 155 / 142 40% 5 12.05.2027 -
Derensili Sanches Fernandes Huddersfield Town Active 127 / 132 40% 5 12.05.2027 -
Themba Ngcobo SuperSport United Active 108 / 112 40% 8 11.05.2027 -
Othmane Maamma Watford Active 124 / 121 40% 1 10.05.2027 -
Gonzalo Fulham Active 135 / 154 40% 9 08.05.2027 -
Kyle Wootton Stockport County Active 112 / 124 40% 6 08.05.2027 -
Callum Hudson-Odoi Nottingham Forest Active 157 / 151 40% 4 07.05.2027 -
Amine Adli Bournemouth Active 148 / 140 40% 2 07.05.2027 -
Dávid Strelec Middlesbrough Active 144 / 135 40% 1 06.05.2027 Needs More Info
Will Lankshear Middlesbrough Active 117 / 132 40% 4 04.05.2027 -
Aaron Collins Milton Keynes Dons Active 129 / 118 40% 4 03.05.2027 -
Tom Fellows Southampton Active 138 / 140 40% 2 03.05.2027 -
Shea Charles Southampton Active 141 / 145 40% 3 03.05.2027 -
Stanley Mills Oxford United Active 128 / 121 40% 1 03.05.2027 -
Milan van Ewijk Mansfield Town Active 123 / 135 40% 2 02.05.2027 -
Juanlu Bournemouth Active 156 / 146 40% 1 02.05.2027 -
Kayne Ramsay Charlton Athletic Active 127 / 131 40% 1 02.05.2027 -
Oli McBurnie Hull City Active 140 / 131 40% 3 29.04.2027 -
Patson Daka Leicester City Active 128 / 120 40% 2 29.04.2027 -
Jens Odgaard Bologna Active 141 / 132 40% 1 29.04.2027 -
Tom Cannon Sheffield United Active 130 / 125 40% 3 28.04.2027 -
Luis Vázquez Birmingham Active 140 / 133 40% 10 27.04.2027 -
Dom Ballard Leyton Orient Active 128 / 131 40% 3 25.04.2027 -
Ethan Galbraith Swansea City Active 132 / 130 40% 2 25.04.2027 -
Oumar Solet Udinese Active 146 / 151 40% 1 25.04.2027 -
Juan Mosquera Sheffield Wednesday Active 132 / 123 40% 3 23.04.2027 -
Max Bird Birmingham Active 139 / 139 40% 2 23.04.2027 -
Alessandro Buongiorno Sassuolo Active 165 / 156 40% 1 23.04.2027 -
Quinten Timber Crystal Palace Active 146 / 156 40% 1 23.04.2027 -
Zeidane Inoussa Swansea City Active 132 / 124 40% 1 23.04.2027 -
Matt O'Riley Brighton Active 155 / 146 40% 1 23.04.2027 -
Adrien Truffert Bournemouth Active 144 / 149 40% 2 20.04.2027 -
Moussa Dembélé CR Belouizdad Active 144 / 120 40% 3 20.04.2027 -
Yehor Yarmoliuk Brentford Active 145 / 143 40% 1 18.04.2027 -
Jason Knight Bristol City Active 133 / 125 40% 2 17.04.2027 -
Mathias Jørgensen Blackburn Rovers Active 119 / 118 40% 1 17.04.2027 -
Kevin Fulham Active 156 / 146 40% 3 13.04.2027 -
Callum O'Hare Sheffield United Active 139 / 137 40% 6 09.04.2027 -
Giorgi Chakvetadze Watford Active 132 / 120 40% 1 08.04.2027 -
Thiago Brentford Active 144 / 150 40% 10 07.04.2027 -
Joe Gelhardt Hull City Active 127 / 130 40% 2 05.04.2027 -
Lewis Morgan SuperSport United Active 139 / 118 40% 2 05.04.2027 -
Josh Tymon Swansea City Active 120 / 117 40% 1 04.04.2027 -
Assane Diao Lazio Active 138 / 142 40% 4 02.04.2027 -
Ryan Sessegnon Fulham Active 152 / 138 40% 4 30.03.2027 -
Fer López Wolverhampton Active 131 / 137 40% 1 30.03.2027 -
Lorent Tolaj Plymouth Argyle Active 126 / 119 40% 4 24.03.2027 -
Rhian Brewster Oxford United Active 122 / 115 40% 3 24.03.2027 -
Teden Mengi Luton Town Active 119 / 128 40% 1 24.03.2027 -
Bosun Lawal Stoke City Active 123 / 127 40% 1 24.03.2027 -
Nicolas Madsen Queens Park Rangers Active 129 / 133 40% 1 22.03.2027 -
Bobby Thomas Coventry City Active 130 / 128 40% 1 22.03.2027 -
Keinan Davis Udinese Active 130 / 139 40% 4 18.03.2027 -
Yeremy Pino Crystal Palace Active 150 / 154 40% 3 18.03.2027 -
Carlos Vicente Birmingham Active 145 / 134 40% 3 17.03.2027 -
Nicolò Cambiaghi Bologna Active 148 / 142 40% 1 15.03.2027 -
Murillo Nottingham Forest Active 153 / 160 40% 1 11.03.2027 -
Aidan Morris Middlesbrough Active 124 / 137 40% 1 08.03.2027 -
Zian Flemming Ipswich Town Active 138 / 125 40% 8 05.03.2027 -
Emmanuel Boateng Hapoel Tel Aviv Active 113 / 124 40% 1 05.03.2027 -
Brayan León Mamelodi Sundowns Active 105 / 120 40% 1 26.02.2027 -
Yousef Salech Cardiff City Active 121 / 125 40% 5 24.02.2027 -
Wilson Isidor Sunderland Active 143 / 139 40% 4 17.02.2027 -
Richard Koné Queens Park Rangers Active 129 / 120 40% 1 16.02.2027 -
Lassina Traoré Shakhtar Active 115 / 108 40% 1 14.02.2027 -
Tomáš Rigo Stoke City Active 120 / 132 40% 1 06.02.2027 -
Derry Murkin Derby County Active 128 / 122 40% 1 06.02.2027 -
Marcelo Allende Mamelodi Sundowns Active 145 / 127 40% 1 25.01.2027 -
Rodrigo Gomes Wolverhampton Active 144 / 140 40% 1 25.01.2027 -
Kwame Poku Queens Park Rangers Active 118 / 125 40% 1 19.01.2027 -
Mfundo Vilakazi Kaizer Chiefs Active 117 / 127 40% 1 11.01.2027 -
Jordan Amissah Burton Albion Active 99 / 99 40% 2 06.01.2027 -
Murphy Cooper Plymouth Argyle Active 111 / 111 40% 4 01.01.2027 -
Luka Gavran Toronto FC Active 110 / 108 40% 3 01.01.2027 -
Erick Sánchez OGC Nice Lost 139 / 139 90% 1 01.01.2027 -
Martín Ojeda Orlando City Active 148 / 125 40% 2 29.12.2026 -
Ruben van Bommel Ferencvaros Active 141 / 137 40% 1 27.12.2026 -
Felix Kyei Medeama Active 102 / 89 40% 1 26.12.2026 -
Oleksandr Saputin Poltava Active 124 / 113 40% 1 26.12.2026 -
Luphumlo Sifumba SuperSport United Active 86 / 104 40% 1 26.12.2026 -
Breel Embolo Atlanta United FC Active 146 / 144 40% 5 22.12.2026 -
Eddie Nketiah Crystal Palace Active 130 / 137 40% 6 22.12.2026 -
Bradley Mabunda SuperSport United Active 116 / 122 40% 4 21.12.2026 -
Gift Hlatshwayo Free State Stars Active 95 / 106 40% 3 21.12.2026 -
Kutlwano Letlhaku Ajax Cape Town Active 114 / 111 40% 1 21.12.2026 -
Endrick Real Madrid Active 146 / 147 40% 1 21.12.2026 -
Armando Broja Burnley Active 126 / 129 40% 4 19.12.2026 -
Talles Magno Wolverhampton Active 135 / 126 40% 1 17.12.2026 -
Ali Ishaku Abia Warriors Active 91 / 90 40% 2 14.12.2026 -
Maksym Kovaliov Spartak 1918 Active 104 / 101 40% 1 13.12.2026 -
Dejan Joveljić Seattle Sounders Active 126 / 117 40% 4 10.12.2026 -
Rafael Navarro St. Louis CITY SC Active 115 / 132 40% 5 06.12.2026 -
Robin Roefs Sunderland Active 152 / 141 40% 5 05.12.2026 -
Radek Vítek Middlesbrough Active 142 / 138 40% 3 05.12.2026 -
Jean-Philippe Mateta Crystal Palace Active 157 / 151 40% 1 03.12.2026 -
Marcus Bundgaard SonderjyskE Active 102 / 109 40% 1 01.12.2026 -
Gabriel Jesus Barcelona Active 149 / 151 40% 5 29.11.2026 -
Kévin Denkey FC Cincinnati Active 119 / 117 40% 2 29.11.2026 -
Nicolás Sumavil Platense Active 113 / 123 40% 1 28.11.2026 -
Ifeanyi Emmanuel Niger Tornadoes Active 101 / 102 40% 1 28.11.2026 -
Vincent Edafe Warri Wolves Active 83 / 93 40% 1 25.11.2026 -
Lukas Jensen Millwall Active 119 / 114 40% 1 22.11.2026 -
Morgan Guilavogui Real Salt Lake Active 113 / 120 40% 4 20.11.2026 -
Sam Surridge Nashville SC Active 128 / 134 40% 2 18.11.2026 -
Tomáš Frühwald Bohemians 1905 Active 121 / 100 40% 1 18.11.2026 -
Vincent Müller Aalborg Active 124 / 114 40% 1 18.11.2026 -
Ani Ozoemena Rivers United Active 106 / 108 40% 2 17.11.2026 -
James Trafford Leeds United Active 135 / 139 40% 1 16.11.2026 -
Michael Cooper Sheffield United Active 123 / 129 40% 2 15.11.2026 -
Nathan Bishop AFC Wimbledon Active 94 / 103 40% 1 13.11.2026 -
Mateusz Kochalski Dynamo Kyiv Active 127 / 124 40% 1 13.11.2026 -
Samuel Essende Young Boys Active 124 / 131 40% 1 10.11.2026 -
Cameron Archer Southampton Active 117 / 132 40% 2 09.11.2026 -
Tomás Chancalay Minnesota United FC Active 120 / 129 40% 4 09.11.2026 -
Caoimhin Kelleher Brentford Active 152 / 144 40% 3 04.11.2026 -
Jesus Ferreira Seattle Sounders Active 129 / 137 40% 2 31.10.2026 -
Joaquín Enrico San Telmo Active 101 / 109 40% 1 31.10.2026 -
John Amah Plateau United Active 86 / 104 40% 1 31.10.2026 -
Wessam Abou Ali Columbus Crew Active 118 / 124 40% 2 25.10.2026 -
Mateusz Bogusz Houston Dynamo Active 116 / 132 40% 2 25.10.2026 -
Adriano Bertaccini Anderlecht Active 119 / 119 40% 1 24.10.2026 -
Biola Sabitu Remo Stars Active 94 / 101 40% 1 20.10.2026 -
Kazuki Fujita Avispa Fukuoka Active 135 / 117 40% 1 19.10.2026 -
Zach Hemming Chesterfield Active 110 / 101 40% 1 19.10.2026 -
João Klauss LA Galaxy Active 114 / 120 40% 2 16.10.2026 -
Daiya Tono Yokohama F. Marinos Active 120 / 117 40% 1 11.10.2026 -
Nicolò Tresoldi Club Brugge Active 135 / 139 40% 3 10.10.2026 Monitor
Federico Chiesa Liverpool Active 152 / 155 40% 3 09.10.2026 -
Diego Rossi Monterrey Active 125 / 132 40% 1 05.10.2026 -
Petar Musa Adana Demirspor Active 131 / 136 40% 2 03.10.2026 -
Josh Sargent Toronto FC Active 119 / 126 40% 1 03.10.2026 -
Hugo Cuypers Monterrey Active 121 / 120 40% 3 29.09.2026 -
Adnan Courtois KV Oostende Active 130 / 132 40% 1 27.09.2026 -
Cody Gakpo Liverpool Active 154 / 151 40% 2 25.09.2026 -
August Priske Birmingham Active 120 / 125 40% 1 23.09.2026 -
Manfred Ugalde Spartak Moscow Active 126 / 134 40% 1 19.09.2026 -
Bamba Dieng Crvena Zvezda Active 134 / 117 40% 1 18.09.2026 -
Leonardo Campana New England Revolution Active 112 / 127 40% 2 12.09.2026 -